sensor_id;sensor_type;location;lat;lon;timestamp;pressure;altitude;pressure_sealevel;temperature;humidity
63339;BME280;70568;51.378;-1.342;2024-03-23T00:54:31;100163.78;;;-0.50;45.21
63339;BME280;70568;51.378;-1.342;2024-03-23T00:56:58;100161.06;;;-1.93;44.88
63339;BME280;70568;51.378;-1.342;2024-03-23T00:59:24;100152.04;;;0.08;43.41
63339;BME280;70568;51.378;-1.342;2024-03-23T01:01:51;100153.46;;;-1.51;45.17
63339;BME280;70568;51.378;-1.342;2024-03-23T01:04:19;100154.88;;;-0.25;44.22
63339;BME280;70568;51.378;-1.342;2024-03-23T01:06:46;100150.26;;;-0.11;43.86
63339;BME280;70568;51.378;-1.342;2024-03-23T01:09:13;100153.26;;;-0.08;43.19
63339;BME280;70568;51.378;-1.342;2024-03-23T01:11:40;100149.98;;;-0.06;43.11
63339;BME280;70568;51.378;-1.342;2024-03-23T01:14:06;100155.55;;;0.32;42.85
63339;BME280;70568;51.378;-1.342;2024-03-23T01:16:33;100150.56;;;-1.33;43.90
63339;BME280;70568;51.378;-1.342;2024-03-23T01:19:00;100144.54;;;-0.32;42.19
63339;BME280;70568;51.378;-1.342;2024-03-23T01:21:26;100146.06;;;0.49;42.81
63339;BME280;70568;51.378;-1.342;2024-03-23T01:23:53;100144.37;;;-0.13;43.22
63339;BME280;70568;51.378;-1.342;2024-03-23T01:26:20;100143.89;;;-1.59;44.16
63339;BME280;70568;51.378;-1.342;2024-03-23T01:28:47;100140.64;;;-0.66;43.58
63339;BME280;70568;51.378;-1.342;2024-03-23T01:31:13;100135.32;;;-0.47;43.08
63339;BME280;70568;51.378;-1.342;2024-03-23T01:33:40;100133.62;;;0.03;42.60
63339;BME280;70568;51.378;-1.342;2024-03-23T01:36:07;100130.74;;;-0.50;42.45
63339;BME280;70568;51.378;-1.342;2024-03-23T01:38:33;100128.19;;;-1.09;42.61
63339;BME280;70568;51.378;-1.342;2024-03-23T01:41:00;100124.58;;;-1.07;41.84
63339;BME280;70568;51.378;-1.342;2024-03-23T01:43:27;100122.21;;;-0.44;41.20
63339;BME280;70568;51.378;-1.342;2024-03-23T01:45:53;100117.13;;;0.48;39.61
63339;BME280;70568;51.378;-1.342;2024-03-23T01:48:21;100117.07;;;0.43;40.62
63339;BME280;70568;51.378;-1.342;2024-03-23T01:50:47;100117.29;;;0.43;39.97
63339;BME280;70568;51.378;-1.342;2024-03-23T01:53:14;100110.29;;;0.62;39.47
63339;BME280;70568;51.378;-1.342;2024-03-23T01:55:41;100111.31;;;0.88;38.96
63339;BME280;70568;51.378;-1.342;2024-03-23T01:58:07;100108.78;;;1.38;38.38
63339;BME280;70568;51.378;-1.342;2024-03-23T02:00:34;100113.71;;;1.02;38.24
63339;BME280;70568;51.378;-1.342;2024-03-23T02:03:00;100111.43;;;0.00;38.68
63339;BME280;70568;51.378;-1.342;2024-03-23T02:05:27;100111.58;;;1.63;38.67
63339;BME280;70568;51.378;-1.342;2024-03-23T02:07:54;100106.12;;;1.26;38.00
63339;BME280;70568;51.378;-1.342;2024-03-23T02:10:21;100102.52;;;0.38;38.51
63339;BME280;70568;51.378;-1.342;2024-03-23T02:12:47;100103.35;;;1.29;39.02
63339;BME280;70568;51.378;-1.342;2024-03-23T02:15:14;100099.70;;;1.03;38.86
63339;BME280;70568;51.378;-1.342;2024-03-23T02:17:40;100096.59;;;0.37;37.98
63339;BME280;70568;51.378;-1.342;2024-03-23T02:20:08;100096.25;;;1.33;38.00
63339;BME280;70568;51.378;-1.342;2024-03-23T02:22:36;100098.70;;;1.38;38.00
63339;BME280;70568;51.378;-1.342;2024-03-23T02:25:04;100094.68;;;-0.15;38.38
63339;BME280;70568;51.378;-1.342;2024-03-23T02:27:31;100092.36;;;1.47;38.42
63339;BME280;70568;51.378;-1.342;2024-03-23T02:29:58;100093.86;;;0.89;38.98
63339;BME280;70568;51.378;-1.342;2024-03-23T02:32:24;100093.53;;;0.62;39.36
63339;BME280;70568;51.378;-1.342;2024-03-23T02:34:51;100094.99;;;0.01;39.49
63339;BME280;70568;51.378;-1.342;2024-03-23T02:37:17;100097.76;;;0.79;41.28
63339;BME280;70568;51.378;-1.342;2024-03-23T02:39:45;100094.74;;;-0.96;42.78
63339;BME280;70568;51.378;-1.342;2024-03-23T02:42:11;100086.33;;;-0.71;42.84
63339;BME280;70568;51.378;-1.342;2024-03-23T02:44:38;100085.48;;;0.02;41.82
63339;BME280;70568;51.378;-1.342;2024-03-23T02:47:05;100086.89;;;-0.78;42.79
63339;BME280;70568;51.378;-1.342;2024-03-23T02:49:32;100090.39;;;-1.19;43.71
63339;BME280;70568;51.378;-1.342;2024-03-23T02:51:58;100088.95;;;-0.40;44.42
63339;BME280;70568;51.378;-1.342;2024-03-23T02:54:25;100084.52;;;-1.02;44.65
63339;BME280;70568;51.378;-1.342;2024-03-23T02:56:51;100087.19;;;-0.67;45.06
63339;BME280;70568;51.378;-1.342;2024-03-23T02:59:19;100084.52;;;-0.53;43.55
63339;BME280;70568;51.378;-1.342;2024-03-23T03:01:45;100087.87;;;-1.17;44.30
63339;BME280;70568;51.378;-1.342;2024-03-23T03:04:12;100086.89;;;-1.67;45.61
63339;BME280;70568;51.378;-1.342;2024-03-23T03:06:39;100083.77;;;-1.76;44.01
63339;BME280;70568;51.378;-1.342;2024-03-23T03:09:06;100084.89;;;-0.02;44.45
63339;BME280;70568;51.378;-1.342;2024-03-23T03:11:32;100084.29;;;-0.61;44.09
63339;BME280;70568;51.378;-1.342;2024-03-23T03:13:59;100091.44;;;-1.21;45.93
63339;BME280;70568;51.378;-1.342;2024-03-23T03:16:27;100092.29;;;-2.20;46.30
63339;BME280;70568;51.378;-1.342;2024-03-23T03:18:54;100088.79;;;-1.20;45.45
63339;BME280;70568;51.378;-1.342;2024-03-23T03:21:21;100081.32;;;-1.84;45.68
63339;BME280;70568;51.378;-1.342;2024-03-23T03:23:48;100083.07;;;-1.47;45.03
63339;BME280;70568;51.378;-1.342;2024-03-23T03:26:15;100080.34;;;0.33;44.09
63339;BME280;70568;51.378;-1.342;2024-03-23T03:28:41;100082.79;;;-1.01;45.05
63339;BME280;70568;51.378;-1.342;2024-03-23T03:31:08;100082.45;;;-0.10;44.59
63339;BME280;70568;51.378;-1.342;2024-03-23T03:33:35;100088.01;;;-2.02;45.60
63339;BME280;70568;51.378;-1.342;2024-03-23T03:36:02;100087.84;;;-0.19;45.96
63339;BME280;70568;51.378;-1.342;2024-03-23T03:38:29;100092.39;;;-1.58;45.90
63339;BME280;70568;51.378;-1.342;2024-03-23T03:40:56;100091.85;;;-0.58;45.90
63339;BME280;70568;51.378;-1.342;2024-03-23T03:43:22;100091.83;;;-1.09;45.38
63339;BME280;70568;51.378;-1.342;2024-03-23T03:45:51;100098.59;;;-1.30;44.73
63339;BME280;70568;51.378;-1.342;2024-03-23T03:48:19;100091.10;;;-0.54;45.06
63339;BME280;70568;51.378;-1.342;2024-03-23T03:50:46;100090.61;;;-0.75;43.60
63339;BME280;70568;51.378;-1.342;2024-03-23T03:53:12;100090.99;;;0.27;42.88
63339;BME280;70568;51.378;-1.342;2024-03-23T03:55:40;100085.44;;;-0.62;41.96
63339;BME280;70568;51.378;-1.342;2024-03-23T03:58:06;100080.09;;;0.21;42.84
63339;BME280;70568;51.378;-1.342;2024-03-23T04:00:33;100081.06;;;0.49;42.59
63339;BME280;70568;51.378;-1.342;2024-03-23T04:02:59;100084.48;;;0.08;43.70
63339;BME280;70568;51.378;-1.342;2024-03-23T04:05:27;100078.95;;;-0.89;43.04
63339;BME280;70568;51.378;-1.342;2024-03-23T04:07:53;100077.73;;;-0.98;44.51
63339;BME280;70568;51.378;-1.342;2024-03-23T04:10:21;100077.36;;;-0.94;44.48
63339;BME280;70568;51.378;-1.342;2024-03-23T04:12:47;100073.28;;;-0.49;44.57
63339;BME280;70568;51.378;-1.342;2024-03-23T04:15:14;100068.87;;;-1.01;44.54
63339;BME280;70568;51.378;-1.342;2024-03-23T04:17:41;100069.17;;;-1.73;44.87
63339;BME280;70568;51.378;-1.342;2024-03-23T04:20:09;100067.56;;;-0.25;44.79
63339;BME280;70568;51.378;-1.342;2024-03-23T04:22:36;100068.95;;;-1.26;45.45
63339;BME280;70568;51.378;-1.342;2024-03-23T04:25:03;100068.78;;;-1.73;44.84
63339;BME280;70568;51.378;-1.342;2024-03-23T04:27:30;100069.44;;;-1.75;44.88
63339;BME280;70568;51.378;-1.342;2024-03-23T04:29:57;100072.31;;;-1.41;46.41
63339;BME280;70568;51.378;-1.342;2024-03-23T04:32:24;100070.82;;;-1.18;46.71
63339;BME280;70568;51.378;-1.342;2024-03-23T04:34:50;100065.02;;;-1.38;47.08
63339;BME280;70568;51.378;-1.342;2024-03-23T04:37:17;100064.01;;;-2.42;47.09
63339;BME280;70568;51.378;-1.342;2024-03-23T04:39:44;100063.79;;;-1.01;45.32
63339;BME280;70568;51.378;-1.342;2024-03-23T04:42:11;100066.69;;;-1.58;45.96
63339;BME280;70568;51.378;-1.342;2024-03-23T04:44:37;100063.73;;;-1.11;44.66
63339;BME280;70568;51.378;-1.342;2024-03-23T04:47:04;100057.64;;;0.17;43.61
63339;BME280;70568;51.378;-1.342;2024-03-23T04:49:30;100060.57;;;-0.93;43.54
63339;BME280;70568;51.378;-1.342;2024-03-23T04:51:57;100050.85;;;-0.51;44.22
63339;BME280;70568;51.378;-1.342;2024-03-23T04:54:24;100047.09;;;-0.38;43.60
63339;BME280;70568;51.378;-1.342;2024-03-23T04:56:50;100043.58;;;0.12;42.24
63339;BME280;70568;51.378;-1.342;2024-03-23T04:59:17;100045.77;;;-1.10;43.46
63339;BME280;70568;51.378;-1.342;2024-03-23T05:01:43;100048.82;;;-1.36;45.13
63339;BME280;70568;51.378;-1.342;2024-03-23T05:04:10;100045.77;;;-1.15;46.17
63339;BME280;70568;51.378;-1.342;2024-03-23T05:06:36;100044.55;;;-1.31;46.62
63339;BME280;70568;51.378;-1.342;2024-03-23T05:09:03;100045.57;;;-1.33;45.95
63339;BME280;70568;51.378;-1.342;2024-03-23T05:11:30;100037.70;;;-0.94;45.86
63339;BME280;70568;51.378;-1.342;2024-03-23T05:13:57;100040.25;;;-1.84;45.80
63339;BME280;70568;51.378;-1.342;2024-03-23T05:16:25;100034.12;;;-1.19;46.16
63339;BME280;70568;51.378;-1.342;2024-03-23T05:18:53;100032.55;;;-1.07;45.67
63339;BME280;70568;51.378;-1.342;2024-03-23T05:21:20;100032.44;;;-0.46;46.72
63339;BME280;70568;51.378;-1.342;2024-03-23T05:23:47;100036.81;;;-1.46;45.99
63339;BME280;70568;51.378;-1.342;2024-03-23T05:26:14;100040.38;;;-0.79;45.90
63339;BME280;70568;51.378;-1.342;2024-03-23T05:28:41;100035.92;;;-1.11;46.18
63339;BME280;70568;51.378;-1.342;2024-03-23T05:31:07;100026.47;;;-0.61;45.06
63339;BME280;70568;51.378;-1.342;2024-03-23T05:33:34;100027.76;;;-1.17;46.17
63339;BME280;70568;51.378;-1.342;2024-03-23T05:36:02;100025.73;;;-1.64;47.33
63339;BME280;70568;51.378;-1.342;2024-03-23T05:38:28;100023.76;;;-1.92;45.93
63339;BME280;70568;51.378;-1.342;2024-03-23T05:40:55;100029.36;;;-1.85;45.49
63339;BME280;70568;51.378;-1.342;2024-03-23T05:43:23;100027.41;;;-1.41;46.98
63339;BME280;70568;51.378;-1.342;2024-03-23T05:45:54;100022.06;;;-3.00;46.32
63339;BME280;70568;51.378;-1.342;2024-03-23T05:48:21;100020.25;;;-1.87;45.32
63339;BME280;70568;51.378;-1.342;2024-03-23T05:50:48;100017.55;;;-2.62;44.25
63339;BME280;70568;51.378;-1.342;2024-03-23T05:53:16;100013.95;;;-1.75;44.54
63339;BME280;70568;51.378;-1.342;2024-03-23T05:55:43;100017.51;;;-1.89;46.00
63339;BME280;70568;51.378;-1.342;2024-03-23T05:58:11;100014.22;;;-1.24;45.40
63339;BME280;70568;51.378;-1.342;2024-03-23T06:00:38;100016.33;;;-1.61;45.13
63339;BME280;70568;51.378;-1.342;2024-03-23T06:03:05;100018.58;;;-1.32;45.83
63339;BME280;70568;51.378;-1.342;2024-03-23T06:05:31;100013.83;;;-0.94;45.66
63339;BME280;70568;51.378;-1.342;2024-03-23T06:07:58;100014.27;;;-2.36;46.09
63339;BME280;70568;51.378;-1.342;2024-03-23T06:10:24;100014.90;;;-1.65;46.30
63339;BME280;70568;51.378;-1.342;2024-03-23T06:12:51;100014.00;;;-0.65;44.79
63339;BME280;70568;51.378;-1.342;2024-03-23T06:15:18;100015.83;;;-1.08;45.66
63339;BME280;70568;51.378;-1.342;2024-03-23T06:17:45;100015.63;;;-1.78;47.48
63339;BME280;70568;51.378;-1.342;2024-03-23T06:20:13;100012.80;;;-3.03;47.21
63339;BME280;70568;51.378;-1.342;2024-03-23T06:22:40;100006.06;;;-1.58;46.55
63339;BME280;70568;51.378;-1.342;2024-03-23T06:25:08;100008.71;;;-2.13;47.28
63339;BME280;70568;51.378;-1.342;2024-03-23T06:27:35;100005.69;;;-0.63;46.80
63339;BME280;70568;51.378;-1.342;2024-03-23T06:30:01;100006.16;;;-1.66;47.53
63339;BME280;70568;51.378;-1.342;2024-03-23T06:32:28;100007.31;;;-0.90;45.97
63339;BME280;70568;51.378;-1.342;2024-03-23T06:34:55;100003.51;;;-2.93;47.84
63339;BME280;70568;51.378;-1.342;2024-03-23T06:37:22;100007.78;;;-1.54;48.70
63339;BME280;70568;51.378;-1.342;2024-03-23T06:39:49;100004.90;;;-2.37;48.75
63339;BME280;70568;51.378;-1.342;2024-03-23T06:42:15;100007.98;;;-2.72;49.56
63339;BME280;70568;51.378;-1.342;2024-03-23T06:44:43;100007.44;;;-2.83;49.27
63339;BME280;70568;51.378;-1.342;2024-03-23T06:47:09;100007.88;;;-2.06;49.01
63339;BME280;70568;51.378;-1.342;2024-03-23T06:49:36;100008.99;;;-2.50;48.55
63339;BME280;70568;51.378;-1.342;2024-03-23T06:52:03;100004.37;;;-2.30;46.81
63339;BME280;70568;51.378;-1.342;2024-03-23T06:54:30;100005.28;;;-1.72;45.89
63339;BME280;70568;51.378;-1.342;2024-03-23T06:56:57;100002.93;;;-1.66;46.32
63339;BME280;70568;51.378;-1.342;2024-03-23T06:59:23;100000.75;;;0.61;45.02
63339;BME280;70568;51.378;-1.342;2024-03-23T07:01:50;100004.60;;;-2.13;45.71
63339;BME280;70568;51.378;-1.342;2024-03-23T07:04:17;100003.02;;;-0.67;44.80
63339;BME280;70568;51.378;-1.342;2024-03-23T07:06:44;99997.11;;;-1.36;46.19
63339;BME280;70568;51.378;-1.342;2024-03-23T07:09:11;99996.04;;;-0.64;45.65
63339;BME280;70568;51.378;-1.342;2024-03-23T07:11:38;99995.71;;;-1.78;45.65
63339;BME280;70568;51.378;-1.342;2024-03-23T07:14:05;99989.87;;;-0.53;43.55
63339;BME280;70568;51.378;-1.342;2024-03-23T07:16:31;99994.41;;;-0.06;44.51
63339;BME280;70568;51.378;-1.342;2024-03-23T07:18:57;99996.95;;;-0.59;42.96
63339;BME280;70568;51.378;-1.342;2024-03-23T07:21:25;99998.05;;;-1.02;43.92
63339;BME280;70568;51.378;-1.342;2024-03-23T07:23:52;99994.79;;;-0.31;44.71
63339;BME280;70568;51.378;-1.342;2024-03-23T07:26:19;99987.21;;;-0.83;44.96
63339;BME280;70568;51.378;-1.342;2024-03-23T07:28:46;99990.30;;;-0.74;45.46
63339;BME280;70568;51.378;-1.342;2024-03-23T07:31:13;99981.91;;;-2.37;43.87
63339;BME280;70568;51.378;-1.342;2024-03-23T07:33:42;99977.88;;;0.53;41.02
63339;BME280;70568;51.378;-1.342;2024-03-23T07:36:09;99976.69;;;1.22;41.10
63339;BME280;70568;51.378;-1.342;2024-03-23T07:38:37;99971.76;;;0.32;40.64
63339;BME280;70568;51.378;-1.342;2024-03-23T07:41:04;99981.87;;;-0.86;43.26
63339;BME280;70568;51.378;-1.342;2024-03-23T07:43:31;99977.11;;;-0.20;43.75
63339;BME280;70568;51.378;-1.342;2024-03-23T07:45:57;99985.88;;;-2.24;45.18
63339;BME280;70568;51.378;-1.342;2024-03-23T07:48:24;99979.61;;;-0.21;44.47
63339;BME280;70568;51.378;-1.342;2024-03-23T07:50:58;99975.57;;;-1.52;44.12
63339;BME280;70568;51.378;-1.342;2024-03-23T07:53:25;99975.03;;;-0.47;43.84
63339;BME280;70568;51.378;-1.342;2024-03-23T07:55:54;99974.05;;;0.10;43.92
63339;BME280;70568;51.378;-1.342;2024-03-23T07:58:21;99971.03;;;-0.10;43.85
63339;BME280;70568;51.378;-1.342;2024-03-23T08:00:49;99962.75;;;-0.83;42.59
63339;BME280;70568;51.378;-1.342;2024-03-23T08:03:15;99965.54;;;-0.43;43.87
63339;BME280;70568;51.378;-1.342;2024-03-23T08:05:42;99973.31;;;-1.77;45.91
63339;BME280;70568;51.378;-1.342;2024-03-23T08:08:08;99964.85;;;0.36;43.40
63339;BME280;70568;51.378;-1.342;2024-03-23T08:10:35;99967.92;;;-0.47;43.71
63339;BME280;70568;51.378;-1.342;2024-03-23T08:13:02;99969.68;;;-0.23;44.55
63339;BME280;70568;51.378;-1.342;2024-03-23T08:15:30;99969.97;;;-0.75;45.13
63339;BME280;70568;51.378;-1.342;2024-03-23T08:17:56;99966.39;;;-1.16;44.56
63339;BME280;70568;51.378;-1.342;2024-03-23T08:20:23;99970.22;;;-0.41;45.86
63339;BME280;70568;51.378;-1.342;2024-03-23T08:22:49;99969.13;;;-0.86;44.62
63339;BME280;70568;51.378;-1.342;2024-03-23T08:25:16;99965.73;;;-0.69;43.03
63339;BME280;70568;51.378;-1.342;2024-03-23T08:27:44;99972.06;;;-0.53;44.81
63339;BME280;70568;51.378;-1.342;2024-03-23T08:30:11;99969.46;;;-0.06;44.06
63339;BME280;70568;51.378;-1.342;2024-03-23T08:32:38;99969.93;;;-0.17;42.90
63339;BME280;70568;51.378;-1.342;2024-03-23T08:35:07;99957.71;;;1.51;42.33
63339;BME280;70568;51.378;-1.342;2024-03-23T08:37:34;99953.91;;;0.67;41.45
63339;BME280;70568;51.378;-1.342;2024-03-23T08:40:00;99946.85;;;0.98;41.47
63339;BME280;70568;51.378;-1.342;2024-03-23T08:42:27;99951.58;;;-0.06;42.18
63339;BME280;70568;51.378;-1.342;2024-03-23T08:44:53;99947.31;;;0.61;41.61
63339;BME280;70568;51.378;-1.342;2024-03-23T08:47:21;99938.69;;;0.00;41.83
63339;BME280;70568;51.378;-1.342;2024-03-23T08:49:47;99935.49;;;-0.16;43.08
63339;BME280;70568;51.378;-1.342;2024-03-23T08:52:14;99944.25;;;-0.81;43.86
63339;BME280;70568;51.378;-1.342;2024-03-23T08:54:40;99952.64;;;-0.63;43.44
63339;BME280;70568;51.378;-1.342;2024-03-23T08:57:07;99931.50;;;-0.60;44.15
63339;BME280;70568;51.378;-1.342;2024-03-23T08:59:33;99934.59;;;-0.23;44.72
63339;BME280;70568;51.378;-1.342;2024-03-23T09:02:00;99923.57;;;-1.65;45.44
63339;BME280;70568;51.378;-1.342;2024-03-23T09:04:27;99926.59;;;-0.98;44.83
63339;BME280;70568;51.378;-1.342;2024-03-23T09:06:53;99917.16;;;0.32;42.97
63339;BME280;70568;51.378;-1.342;2024-03-23T09:09:21;99914.34;;;0.97;43.12
63339;BME280;70568;51.378;-1.342;2024-03-23T09:11:48;99914.01;;;0.47;41.02
63339;BME280;70568;51.378;-1.342;2024-03-23T09:14:14;99922.03;;;0.31;41.80
63339;BME280;70568;51.378;-1.342;2024-03-23T09:16:41;99915.07;;;0.71;42.32
63339;BME280;70568;51.378;-1.342;2024-03-23T09:19:08;99901.92;;;0.24;41.61
63339;BME280;70568;51.378;-1.342;2024-03-23T09:21:35;99913.73;;;0.59;41.87
63339;BME280;70568;51.378;-1.342;2024-03-23T09:24:02;99906.84;;;0.92;41.90
63339;BME280;70568;51.378;-1.342;2024-03-23T09:26:29;99901.74;;;-0.32;43.06
63339;BME280;70568;51.378;-1.342;2024-03-23T09:28:56;99897.95;;;-0.66;41.89
63339;BME280;70568;51.378;-1.342;2024-03-23T09:31:22;99889.80;;;0.33;41.60
63339;BME280;70568;51.378;-1.342;2024-03-23T09:33:49;99884.98;;;0.91;40.81
63339;BME280;70568;51.378;-1.342;2024-03-23T09:36:15;99882.93;;;1.62;40.51
63339;BME280;70568;51.378;-1.342;2024-03-23T09:38:43;99887.88;;;1.66;41.65
63339;BME280;70568;51.378;-1.342;2024-03-23T09:41:10;99878.36;;;0.45;40.42
63339;BME280;70568;51.378;-1.342;2024-03-23T09:43:37;99871.40;;;0.46;39.88
63339;BME280;70568;51.378;-1.342;2024-03-23T09:46:04;99864.65;;;1.60;39.10
63339;BME280;70568;51.378;-1.342;2024-03-23T09:48:31;99856.89;;;1.03;39.41
63339;BME280;70568;51.378;-1.342;2024-03-23T09:50:58;99863.70;;;0.20;39.81
63339;BME280;70568;51.378;-1.342;2024-03-23T09:53:25;99854.24;;;-0.53;40.44
63339;BME280;70568;51.378;-1.342;2024-03-23T09:55:51;99859.50;;;0.65;38.99
63339;BME280;70568;51.378;-1.342;2024-03-23T09:58:19;99847.52;;;0.87;38.57
63339;BME280;70568;51.378;-1.342;2024-03-23T10:00:46;99866.42;;;0.84;39.53
63339;BME280;70568;51.378;-1.342;2024-03-23T10:03:13;99867.47;;;1.02;38.77
63339;BME280;70568;51.378;-1.342;2024-03-23T10:05:40;99861.01;;;1.16;38.06
63339;BME280;70568;51.378;-1.342;2024-03-23T10:08:18;99859.31;;;1.23;38.08
63339;BME280;70568;51.378;-1.342;2024-03-23T10:10:46;99866.51;;;0.29;38.32
63339;BME280;70568;51.378;-1.342;2024-03-23T10:13:24;99872.68;;;1.85;37.79
63339;BME280;70568;51.378;-1.342;2024-03-23T10:15:55;99851.04;;;0.60;37.09
63339;BME280;70568;51.378;-1.342;2024-03-23T10:18:23;99848.74;;;1.40;37.81
63339;BME280;70568;51.378;-1.342;2024-03-23T10:20:53;99847.38;;;1.01;37.08
63339;BME280;70568;51.378;-1.342;2024-03-23T10:23:32;99838.13;;;2.12;37.45
63339;BME280;70568;51.378;-1.342;2024-03-23T10:26:12;99833.17;;;2.62;36.83
63339;BME280;70568;51.378;-1.342;2024-03-23T10:28:50;99829.78;;;2.79;35.21
63339;BME280;70568;51.378;-1.342;2024-03-23T10:31:18;99829.11;;;2.49;36.44
63339;BME280;70568;51.378;-1.342;2024-03-23T10:33:45;99828.86;;;1.94;37.02
63339;BME280;70568;51.378;-1.342;2024-03-23T10:36:13;99829.44;;;0.88;38.46
63339;BME280;70568;51.378;-1.342;2024-03-23T10:38:41;99824.58;;;2.12;36.31
63339;BME280;70568;51.378;-1.342;2024-03-23T10:41:09;99819.32;;;1.46;36.15
63339;BME280;70568;51.378;-1.342;2024-03-23T10:43:37;99823.45;;;2.30;35.83
63339;BME280;70568;51.378;-1.342;2024-03-23T10:46:04;99804.78;;;1.98;34.90
63339;BME280;70568;51.378;-1.342;2024-03-23T10:48:31;99808.99;;;2.26;34.20
63339;BME280;70568;51.378;-1.342;2024-03-23T10:50:59;99801.75;;;2.67;35.05
63339;BME280;70568;51.378;-1.342;2024-03-23T10:53:27;99799.35;;;2.47;35.97
63339;BME280;70568;51.378;-1.342;2024-03-23T10:55:55;99797.32;;;0.64;36.32
63339;BME280;70568;51.378;-1.342;2024-03-23T10:58:26;99798.17;;;0.22;35.86
63339;BME280;70568;51.378;-1.342;2024-03-23T11:00:54;99789.17;;;2.40;35.80
63339;BME280;70568;51.378;-1.342;2024-03-23T11:03:39;99785.81;;;3.64;36.47
63339;BME280;70568;51.378;-1.342;2024-03-23T11:06:07;99785.52;;;1.30;37.99
63339;BME280;70568;51.378;-1.342;2024-03-23T11:08:35;99783.10;;;1.28;38.20
63339;BME280;70568;51.378;-1.342;2024-03-23T11:11:19;99774.40;;;1.96;38.69
63339;BME280;70568;51.378;-1.342;2024-03-23T11:13:48;99779.91;;;0.62;39.02
63339;BME280;70568;51.378;-1.342;2024-03-23T11:16:17;99779.89;;;1.74;39.52
63339;BME280;70568;51.378;-1.342;2024-03-23T11:18:44;99784.51;;;1.89;40.37
63339;BME280;70568;51.378;-1.342;2024-03-23T11:21:11;99791.93;;;-0.56;43.34
63339;BME280;70568;51.378;-1.342;2024-03-23T11:24:19;99781.63;;;0.37;42.08
63339;BME280;70568;51.378;-1.342;2024-03-23T11:26:46;99784.46;;;-0.31;43.79
63339;BME280;70568;51.378;-1.342;2024-03-23T11:29:15;99777.89;;;0.37;44.23
63339;BME280;70568;51.378;-1.342;2024-03-23T11:31:46;99783.86;;;0.59;43.36
63339;BME280;70568;51.378;-1.342;2024-03-23T11:34:13;99781.12;;;1.31;41.77
63339;BME280;70568;51.378;-1.342;2024-03-23T11:36:41;99777.57;;;1.37;39.24
63339;BME280;70568;51.378;-1.342;2024-03-23T11:39:16;99776.13;;;1.40;39.21
63339;BME280;70568;51.378;-1.342;2024-03-23T11:41:47;99773.99;;;1.22;38.39
63339;BME280;70568;51.378;-1.342;2024-03-23T11:44:16;99761.39;;;2.29;39.35
63339;BME280;70568;51.378;-1.342;2024-03-23T11:46:43;99760.78;;;2.66;40.25
63339;BME280;70568;51.378;-1.342;2024-03-23T11:49:21;99757.86;;;2.47;40.62
63339;BME280;70568;51.378;-1.342;2024-03-23T11:51:49;99745.91;;;2.26;40.72
63339;BME280;70568;51.378;-1.342;2024-03-23T11:54:16;99736.62;;;3.11;40.27
63339;BME280;70568;51.378;-1.342;2024-03-23T11:56:54;99724.17;;;4.07;38.31
63339;BME280;70568;51.378;-1.342;2024-03-23T11:59:38;99718.69;;;3.55;37.45
63339;BME280;70568;51.378;-1.342;2024-03-23T12:02:06;99722.06;;;1.28;39.85
63339;BME280;70568;51.378;-1.342;2024-03-23T12:04:34;99715.40;;;2.58;37.95
63339;BME280;70568;51.378;-1.342;2024-03-23T12:07:17;99732.06;;;2.14;39.30
63339;BME280;70568;51.378;-1.342;2024-03-23T12:09:45;99724.74;;;2.32;39.22
63339;BME280;70568;51.378;-1.342;2024-03-23T12:12:15;99730.80;;;1.82;37.25
63339;BME280;70568;51.378;-1.342;2024-03-23T12:14:42;99733.52;;;2.06;40.67
63339;BME280;70568;51.378;-1.342;2024-03-23T12:17:10;99753.84;;;1.22;44.68
63339;BME280;70568;51.378;-1.342;2024-03-23T12:19:37;99774.91;;;0.42;47.12
63339;BME280;70568;51.378;-1.342;2024-03-23T12:22:04;99779.32;;;-0.51;49.98
63339;BME280;70568;51.378;-1.342;2024-03-23T12:24:32;99769.58;;;-0.59;49.79
63339;BME280;70568;51.378;-1.342;2024-03-23T12:27:01;99762.58;;;0.27;50.39
63339;BME280;70568;51.378;-1.342;2024-03-23T12:29:29;99763.94;;;-0.29;51.18
63339;BME280;70568;51.378;-1.342;2024-03-23T12:31:56;99749.48;;;1.31;50.80
63339;BME280;70568;51.378;-1.342;2024-03-23T12:34:23;99745.44;;;1.76;49.94
63339;BME280;70568;51.378;-1.342;2024-03-23T12:36:50;99732.04;;;0.28;49.69
63339;BME280;70568;51.378;-1.342;2024-03-23T12:39:17;99724.85;;;0.94;47.84
63339;BME280;70568;51.378;-1.342;2024-03-23T12:41:43;99725.40;;;0.65;50.28
63339;BME280;70568;51.378;-1.342;2024-03-23T12:44:10;99729.00;;;-0.26;50.67
63339;BME280;70568;51.378;-1.342;2024-03-23T12:46:36;99739.10;;;0.28;51.53
63339;BME280;70568;51.378;-1.342;2024-03-23T12:49:03;99741.12;;;-0.44;49.62
63339;BME280;70568;51.378;-1.342;2024-03-23T12:51:29;99739.09;;;-1.49;50.74
63339;BME280;70568;51.378;-1.342;2024-03-23T12:53:56;99727.49;;;-0.15;49.63
63339;BME280;70568;51.378;-1.342;2024-03-23T12:56:22;99724.40;;;0.26;47.89
63339;BME280;70568;51.378;-1.342;2024-03-23T12:58:49;99719.50;;;0.24;47.60
63339;BME280;70568;51.378;-1.342;2024-03-23T13:01:16;99713.79;;;1.16;46.72
63339;BME280;70568;51.378;-1.342;2024-03-23T13:03:42;99720.70;;;2.05;47.06
63339;BME280;70568;51.378;-1.342;2024-03-23T13:06:09;99774.96;;;0.70;45.31
63339;BME280;70568;51.378;-1.342;2024-03-23T13:08:36;99787.51;;;1.09;45.33
63339;BME280;70568;51.378;-1.342;2024-03-23T13:11:02;99780.09;;;0.20;44.09
63339;BME280;70568;51.378;-1.342;2024-03-23T13:13:30;99773.94;;;-0.34;45.63
63339;BME280;70568;51.378;-1.342;2024-03-23T13:15:56;99773.87;;;0.37;46.66
63339;BME280;70568;51.378;-1.342;2024-03-23T13:18:23;99777.08;;;-1.97;49.79
63339;BME280;70568;51.378;-1.342;2024-03-23T13:20:49;99743.30;;;-0.33;45.89
63339;BME280;70568;51.378;-1.342;2024-03-23T13:23:16;99740.23;;;-0.39;46.49
63339;BME280;70568;51.378;-1.342;2024-03-23T13:25:49;99741.84;;;-1.57;47.17
63339;BME280;70568;51.378;-1.342;2024-03-23T13:28:16;99733.27;;;-0.74;46.81
63339;BME280;70568;51.378;-1.342;2024-03-23T13:30:49;99726.20;;;0.02;46.77
63339;BME280;70568;51.378;-1.342;2024-03-23T13:33:16;99710.39;;;0.14;46.63
63339;BME280;70568;51.378;-1.342;2024-03-23T13:35:49;99707.75;;;0.57;46.40
63339;BME280;70568;51.378;-1.342;2024-03-23T13:38:16;99717.25;;;1.26;46.77
63339;BME280;70568;51.378;-1.342;2024-03-23T13:40:50;99717.80;;;1.20;45.54
63339;BME280;70568;51.378;-1.342;2024-03-23T13:43:17;99722.54;;;0.95;45.35
63339;BME280;70568;51.378;-1.342;2024-03-23T13:45:43;99721.21;;;0.53;46.25